Terminal Aerodrome Forecast
Issued by NWS

Home | Current Version | Previous Version | Text Only | Print | Product List | Glossary On
Versions: 1 2 3 4 5 6 7 8 9 10 11 12 13 14 15 16
000
FTUS43 KFGF 280538
TAFDVL
TAF
KDVL 280538Z 2806/2906 14015KT P6SM BKN016
      TEMPO 2807/2809 5SM -TSRA BKN040CB
     FM281200 19017KT P6SM BKN050
     FM281500 24020G30KT P6SM SCT080
     FM282100 24028G38KT P6SM SCT080
      AMD LTD TO CLD VIS AND WIND=

USA.gov is the U.S. government's official web portal to all federal, state and local government web resources and services.